sensor_id;sensor_type;location;lat;lon;timestamp;pressure;altitude;pressure_sealevel;temperature;humidity
69245;BME280;56357;52.304;4.870;2023-03-01T00:01:16;103488.81;;;16.85;47.38
69245;BME280;56357;52.304;4.870;2023-03-01T00:03:43;103481.50;;;16.84;47.13
69245;BME280;56357;52.304;4.870;2023-03-01T00:06:10;103476.31;;;16.81;47.13
69245;BME280;56357;52.304;4.870;2023-03-01T00:08:37;103485.81;;;16.87;47.16
69245;BME280;56357;52.304;4.870;2023-03-01T00:11:19;103483.88;;;16.87;46.69
69245;BME280;56357;52.304;4.870;2023-03-01T00:13:47;103479.53;;;16.78;47.18
69245;BME280;56357;52.304;4.870;2023-03-01T00:16:35;103481.91;;;16.75;46.93
69245;BME280;56357;52.304;4.870;2023-03-01T00:19:02;103483.78;;;16.68;47.50
69245;BME280;56357;52.304;4.870;2023-03-01T00:21:28;103476.47;;;16.67;47.37
69245;BME280;56357;52.304;4.870;2023-03-01T00:23:55;103475.88;;;16.71;47.02
69245;BME280;56357;52.304;4.870;2023-03-01T00:26:23;103472.84;;;16.73;47.21
69245;BME280;56357;52.304;4.870;2023-03-01T00:28:51;103468.97;;;16.74;47.10
69245;BME280;56357;52.304;4.870;2023-03-01T00:31:21;103472.63;;;16.74;46.90
69245;BME280;56357;52.304;4.870;2023-03-01T00:33:52;103467.66;;;16.70;46.96
69245;BME280;56357;52.304;4.870;2023-03-01T00:36:19;103459.69;;;16.67;47.09
69245;BME280;56357;52.304;4.870;2023-03-01T00:38:45;103465.44;;;16.59;47.09
69245;BME280;56357;52.304;4.870;2023-03-01T00:41:14;103462.69;;;16.65;47.27
69245;BME280;56357;52.304;4.870;2023-03-01T00:43:42;103458.59;;;16.61;47.34
69245;BME280;56357;52.304;4.870;2023-03-01T00:46:14;103461.84;;;16.65;46.91
69245;BME280;56357;52.304;4.870;2023-03-01T00:48:42;103465.69;;;16.64;47.05
69245;BME280;56357;52.304;4.870;2023-03-01T00:51:13;103466.13;;;16.61;46.92
69245;BME280;56357;52.304;4.870;2023-03-01T00:53:40;103460.72;;;16.59;47.23
69245;BME280;56357;52.304;4.870;2023-03-01T00:56:08;103460.72;;;16.59;46.93
69245;BME280;56357;52.304;4.870;2023-03-01T00:58:35;103455.53;;;16.56;47.33
69245;BME280;56357;52.304;4.870;2023-03-01T01:01:17;103452.94;;;16.55;47.22
69245;BME280;56357;52.304;4.870;2023-03-01T01:03:50;103455.75;;;16.55;46.95
69245;BME280;56357;52.304;4.870;2023-03-01T01:06:28;103451.63;;;16.51;47.21
69245;BME280;56357;52.304;4.870;2023-03-01T01:08:56;103454.44;;;16.51;47.25
69245;BME280;56357;52.304;4.870;2023-03-01T01:11:24;103457.00;;;16.52;47.21
69245;BME280;56357;52.304;4.870;2023-03-01T01:13:52;103451.63;;;16.51;46.95
69245;BME280;56357;52.304;4.870;2023-03-01T01:16:20;103448.56;;;16.45;47.07
69245;BME280;56357;52.304;4.870;2023-03-01T01:18:47;103450.28;;;16.46;47.22
69245;BME280;56357;52.304;4.870;2023-03-01T01:21:17;103446.81;;;16.44;46.89
69245;BME280;56357;52.304;4.870;2023-03-01T01:23:44;103443.19;;;16.44;47.05
69245;BME280;56357;52.304;4.870;2023-03-01T01:26:17;103436.94;;;16.42;47.25
69245;BME280;56357;52.304;4.870;2023-03-01T01:28:45;103428.56;;;16.42;47.31
69245;BME280;56357;52.304;4.870;2023-03-01T01:31:11;103430.69;;;16.40;47.30
69245;BME280;56357;52.304;4.870;2023-03-01T01:33:38;103420.16;;;16.42;47.00
69245;BME280;56357;52.304;4.870;2023-03-01T01:36:06;103417.31;;;16.35;47.18
69245;BME280;56357;52.304;4.870;2023-03-01T01:38:34;103407.63;;;16.31;47.28
69245;BME280;56357;52.304;4.870;2023-03-01T01:41:01;103410.00;;;16.34;47.27
69245;BME280;56357;52.304;4.870;2023-03-01T01:43:36;103407.81;;;16.30;47.10
69245;BME280;56357;52.304;4.870;2023-03-01T01:49:04;103410.19;;;16.33;47.22
69245;BME280;56357;52.304;4.870;2023-03-01T01:51:37;103403.94;;;16.24;46.99
69245;BME280;56357;52.304;4.870;2023-03-01T01:54:14;103406.72;;;16.24;47.21
69245;BME280;56357;52.304;4.870;2023-03-01T01:56:48;103405.63;;;16.25;46.95
69245;BME280;56357;52.304;4.870;2023-03-01T01:59:18;103398.72;;;16.21;47.51
69245;BME280;56357;52.304;4.870;2023-03-01T02:01:50;103406.94;;;16.23;47.24
69245;BME280;56357;52.304;4.870;2023-03-01T02:04:17;103408.81;;;16.16;47.23
69245;BME280;56357;52.304;4.870;2023-03-01T02:06:49;103407.09;;;16.15;47.23
69245;BME280;56357;52.304;4.870;2023-03-01T02:09:18;103404.09;;;16.16;47.20
69245;BME280;56357;52.304;4.870;2023-03-01T02:11:47;103405.63;;;16.19;47.02
69245;BME280;56357;52.304;4.870;2023-03-01T02:14:15;103398.28;;;16.18;47.13
69245;BME280;56357;52.304;4.870;2023-03-01T02:16:41;103402.78;;;16.12;47.10
69245;BME280;56357;52.304;4.870;2023-03-01T02:19:13;103396.13;;;16.13;47.24
69245;BME280;56357;52.304;4.870;2023-03-01T02:22:07;103396.53;;;16.10;47.44
69245;BME280;56357;52.304;4.870;2023-03-01T02:24:57;103385.78;;;16.07;47.32
69245;BME280;56357;52.304;4.870;2023-03-01T02:27:35;103393.50;;;16.05;47.37
69245;BME280;56357;52.304;4.870;2023-03-01T02:30:03;103378.41;;;16.00;47.04
69245;BME280;56357;52.304;4.870;2023-03-01T02:32:30;103378.66;;;16.05;47.19
69245;BME280;56357;52.304;4.870;2023-03-01T02:34:57;103379.25;;;16.00;47.33
69245;BME280;56357;52.304;4.870;2023-03-01T02:37:25;103379.91;;;16.02;47.00
69245;BME280;56357;52.304;4.870;2023-03-01T02:39:59;103386.97;;;15.92;47.35
69245;BME280;56357;52.304;4.870;2023-03-01T02:42:32;103387.16;;;15.90;47.18
69245;BME280;56357;52.304;4.870;2023-03-01T02:45:01;103380.47;;;15.85;47.39
69245;BME280;56357;52.304;4.870;2023-03-01T02:47:28;103380.09;;;15.94;47.48
69245;BME280;56357;52.304;4.870;2023-03-01T02:49:54;103374.03;;;15.91;47.16
69245;BME280;56357;52.304;4.870;2023-03-01T02:52:47;103367.63;;;15.90;47.23
69245;BME280;56357;52.304;4.870;2023-03-01T02:55:19;103363.72;;;15.85;47.19
69245;BME280;56357;52.304;4.870;2023-03-01T02:57:48;103364.31;;;15.80;47.32
69245;BME280;56357;52.304;4.870;2023-03-01T03:00:30;103362.94;;;15.70;47.74
69245;BME280;56357;52.304;4.870;2023-03-01T03:02:58;103365.50;;;15.65;47.58
69245;BME280;56357;52.304;4.870;2023-03-01T03:05:30;103366.56;;;15.64;47.84
69245;BME280;56357;52.304;4.870;2023-03-01T03:07:58;103361.97;;;15.56;48.01
69245;BME280;56357;52.304;4.870;2023-03-01T03:10:29;103364.72;;;15.49;48.04
69245;BME280;56357;52.304;4.870;2023-03-01T03:13:02;103359.66;;;15.60;48.18
69245;BME280;56357;52.304;4.870;2023-03-01T03:15:29;103356.22;;;15.57;48.12
69245;BME280;56357;52.304;4.870;2023-03-01T03:17:58;103363.28;;;15.60;48.01
69245;BME280;56357;52.304;4.870;2023-03-01T03:20:27;103356.06;;;15.66;48.11
69245;BME280;56357;52.304;4.870;2023-03-01T03:22:55;103356.22;;;15.57;48.23
69245;BME280;56357;52.304;4.870;2023-03-01T03:25:24;103343.25;;;15.50;48.32
69245;BME280;56357;52.304;4.870;2023-03-01T03:27:51;103341.22;;;15.65;48.14
69245;BME280;56357;52.304;4.870;2023-03-01T03:30:23;103339.94;;;15.68;48.16
69245;BME280;56357;52.304;4.870;2023-03-01T03:32:50;103335.47;;;15.73;48.13
69245;BME280;56357;52.304;4.870;2023-03-01T03:35:42;103338.00;;;15.68;48.14
69245;BME280;56357;52.304;4.870;2023-03-01T03:38:10;103334.41;;;15.74;48.04
69245;BME280;56357;52.304;4.870;2023-03-01T03:40:49;103317.19;;;15.71;48.16
69245;BME280;56357;52.304;4.870;2023-03-01T03:43:21;103323.88;;;15.76;47.97
69245;BME280;56357;52.304;4.870;2023-03-01T03:45:50;103326.00;;;15.74;48.09
69245;BME280;56357;52.304;4.870;2023-03-01T03:48:17;103326.66;;;15.76;47.83
69245;BME280;56357;52.304;4.870;2023-03-01T03:50:50;103311.84;;;15.76;47.78
69245;BME280;56357;52.304;4.870;2023-03-01T03:53:18;103315.72;;;15.75;48.02
69245;BME280;56357;52.304;4.870;2023-03-01T03:55:45;103323.66;;;15.71;47.93
69245;BME280;56357;52.304;4.870;2023-03-01T03:58:15;103326.22;;;15.73;48.36
69245;BME280;56357;52.304;4.870;2023-03-01T04:00:45;103324.97;;;15.75;48.27
69245;BME280;56357;52.304;4.870;2023-03-01T04:03:13;103334.63;;;15.79;48.13
69245;BME280;56357;52.304;4.870;2023-03-01T04:05:40;103343.00;;;15.79;48.09
69245;BME280;56357;52.304;4.870;2023-03-01T04:08:07;103340.44;;;15.78;48.31
69245;BME280;56357;52.304;4.870;2023-03-01T04:10:40;103333.38;;;15.82;48.23
69245;BME280;56357;52.304;4.870;2023-03-01T04:13:11;103332.25;;;15.76;47.94
69245;BME280;56357;52.304;4.870;2023-03-01T04:15:39;103330.56;;;15.82;48.65
69245;BME280;56357;52.304;4.870;2023-03-01T04:18:06;103324.31;;;15.80;48.29
69245;BME280;56357;52.304;4.870;2023-03-01T04:20:34;103323.00;;;15.76;48.28
69245;BME280;56357;52.304;4.870;2023-03-01T04:23:07;103319.41;;;15.82;48.27
69245;BME280;56357;52.304;4.870;2023-03-01T04:25:54;103317.09;;;15.92;47.82
69245;BME280;56357;52.304;4.870;2023-03-01T04:30:52;103316.28;;;15.64;48.63
69245;BME280;56357;52.304;4.870;2023-03-01T04:33:19;103317.13;;;15.64;48.68
69245;BME280;56357;52.304;4.870;2023-03-01T04:35:47;103316.59;;;15.75;48.55
69245;BME280;56357;52.304;4.870;2023-03-01T04:38:14;103319.75;;;15.72;49.02
69245;BME280;56357;52.304;4.870;2023-03-01T04:40:41;103320.66;;;15.79;48.61
69245;BME280;56357;52.304;4.870;2023-03-01T04:43:09;103313.81;;;15.82;48.15
69245;BME280;56357;52.304;4.870;2023-03-01T04:45:36;103307.84;;;15.91;48.48
69245;BME280;56357;52.304;4.870;2023-03-01T04:48:03;103307.22;;;15.96;48.50
69245;BME280;56357;52.304;4.870;2023-03-01T04:50:30;103308.50;;;15.93;48.17
69245;BME280;56357;52.304;4.870;2023-03-01T04:52:56;103310.84;;;15.90;48.22
69245;BME280;56357;52.304;4.870;2023-03-01T04:55:28;103305.69;;;15.87;48.54
69245;BME280;56357;52.304;4.870;2023-03-01T04:57:55;103308.22;;;15.82;48.86
69245;BME280;56357;52.304;4.870;2023-03-01T05:00:22;103307.31;;;15.75;48.65
69245;BME280;56357;52.304;4.870;2023-03-01T05:02:53;103306.13;;;15.90;48.65
69245;BME280;56357;52.304;4.870;2023-03-01T05:05:30;103302.25;;;15.85;48.53
69245;BME280;56357;52.304;4.870;2023-03-01T05:07:59;103309.16;;;15.95;48.37
69245;BME280;56357;52.304;4.870;2023-03-01T05:10:28;103301.19;;;15.92;48.62
69245;BME280;56357;52.304;4.870;2023-03-01T05:12:56;103300.94;;;15.87;48.55
69245;BME280;56357;52.304;4.870;2023-03-01T05:15:24;103296.44;;;15.86;48.72
69245;BME280;56357;52.304;4.870;2023-03-01T05:17:52;103288.66;;;15.75;48.96
69245;BME280;56357;52.304;4.870;2023-03-01T05:20:20;103285.47;;;15.91;48.86
69245;BME280;56357;52.304;4.870;2023-03-01T05:22:49;103274.97;;;15.93;48.32
69245;BME280;56357;52.304;4.870;2023-03-01T05:25:16;103276.88;;;15.93;48.54
69245;BME280;56357;52.304;4.870;2023-03-01T05:27:43;103274.97;;;15.93;48.83
69245;BME280;56357;52.304;4.870;2023-03-01T05:30:10;103264.22;;;15.90;48.71
69245;BME280;56357;52.304;4.870;2023-03-01T05:32:44;103260.50;;;15.83;48.78
69245;BME280;56357;52.304;4.870;2023-03-01T05:35:16;103257.97;;;15.88;48.70
69245;BME280;56357;52.304;4.870;2023-03-01T05:37:45;103249.59;;;15.88;48.72
69245;BME280;56357;52.304;4.870;2023-03-01T05:40:14;103245.53;;;15.97;48.66
69245;BME280;56357;52.304;4.870;2023-03-01T05:42:46;103253.22;;;15.89;49.05
69245;BME280;56357;52.304;4.870;2023-03-01T05:45:14;103249.97;;;15.85;48.89
69245;BME280;56357;52.304;4.870;2023-03-01T05:47:41;103241.25;;;16.01;49.13
69245;BME280;56357;52.304;4.870;2023-03-01T05:50:15;103246.84;;;16.01;48.62
69245;BME280;56357;52.304;4.870;2023-03-01T05:52:45;103245.06;;;15.87;49.17
69245;BME280;56357;52.304;4.870;2023-03-01T05:55:12;103250.69;;;16.00;48.67
69245;BME280;56357;52.304;4.870;2023-03-01T05:57:38;103241.03;;;16.03;48.45
69245;BME280;56357;52.304;4.870;2023-03-01T06:00:05;103237.56;;;15.94;48.77
69245;BME280;56357;52.304;4.870;2023-03-01T06:02:32;103240.38;;;16.01;48.49
69245;BME280;56357;52.304;4.870;2023-03-01T06:04:58;103242.56;;;16.05;48.49
69245;BME280;56357;52.304;4.870;2023-03-01T06:07:25;103236.44;;;15.82;49.02
69245;BME280;56357;52.304;4.870;2023-03-01T06:09:52;103237.38;;;16.02;48.88
69245;BME280;56357;52.304;4.870;2023-03-01T06:12:18;103236.97;;;16.05;48.54
69245;BME280;56357;52.304;4.870;2023-03-01T06:14:46;103240.16;;;16.02;48.79
69245;BME280;56357;52.304;4.870;2023-03-01T06:17:16;103242.03;;;15.89;49.14
69245;BME280;56357;52.304;4.870;2023-03-01T06:19:42;103240.16;;;16.02;48.92
69245;BME280;56357;52.304;4.870;2023-03-01T06:22:09;103233.91;;;16.00;48.92
69245;BME280;56357;52.304;4.870;2023-03-01T06:24:35;103235.00;;;15.99;49.30
69245;BME280;56357;52.304;4.870;2023-03-01T06:27:02;103235.00;;;15.99;49.27
69245;BME280;56357;52.304;4.870;2023-03-01T06:29:28;103234.19;;;16.05;48.80
69245;BME280;56357;52.304;4.870;2023-03-01T06:31:55;103233.53;;;16.03;48.93
69245;BME280;56357;52.304;4.870;2023-03-01T06:34:21;103234.78;;;15.94;49.29
69245;BME280;56357;52.304;4.870;2023-03-01T06:36:48;103235.66;;;16.01;48.63
69245;BME280;56357;52.304;4.870;2023-03-01T06:39:14;103236.97;;;16.05;48.77
69245;BME280;56357;52.304;4.870;2023-03-01T06:41:42;103230.50;;;16.05;48.84
69245;BME280;56357;52.304;4.870;2023-03-01T06:44:09;103222.34;;;16.10;48.90
69245;BME280;56357;52.304;4.870;2023-03-01T06:46:36;103239.09;;;16.03;48.54
69245;BME280;56357;52.304;4.870;2023-03-01T06:49:02;103240.84;;;16.11;48.57
69245;BME280;56357;52.304;4.870;2023-03-01T06:51:32;103242.59;;;16.18;48.41
69245;BME280;56357;52.304;4.870;2023-03-01T06:53:59;103238.75;;;16.19;48.44
69245;BME280;56357;52.304;4.870;2023-03-01T06:56:26;103235.03;;;16.12;48.47
69245;BME280;56357;52.304;4.870;2023-03-01T06:58:52;103241.94;;;16.16;48.50
69245;BME280;56357;52.304;4.870;2023-03-01T07:01:19;103241.00;;;15.90;49.58
69245;BME280;56357;52.304;4.870;2023-03-01T07:03:45;103246.19;;;15.99;49.38
69245;BME280;56357;52.304;4.870;2023-03-01T07:06:12;103244.22;;;15.93;49.39
69245;BME280;56357;52.304;4.870;2023-03-01T07:08:38;103244.84;;;15.89;49.22
69245;BME280;56357;52.304;4.870;2023-03-01T07:11:05;103239.75;;;16.12;48.82
69245;BME280;56357;52.304;4.870;2023-03-01T07:13:32;103247.31;;;16.18;49.30
69245;BME280;56357;52.304;4.870;2023-03-01T07:15:59;103247.31;;;16.11;51.10
69245;BME280;56357;52.304;4.870;2023-03-01T07:18:25;103250.78;;;16.20;49.43
69245;BME280;56357;52.304;4.870;2023-03-01T07:20:52;103248.81;;;16.14;50.25
69245;BME280;56357;52.304;4.870;2023-03-01T07:23:18;103252.06;;;16.17;49.82
69245;BME280;56357;52.304;4.870;2023-03-01T07:25:51;103260.28;;;16.32;49.47
69245;BME280;56357;52.304;4.870;2023-03-01T07:28:19;103253.59;;;16.26;48.46
69245;BME280;56357;52.304;4.870;2023-03-01T07:30:45;103257.66;;;16.17;48.85
69245;BME280;56357;52.304;4.870;2023-03-01T07:33:11;103261.34;;;16.31;48.75
69245;BME280;56357;52.304;4.870;2023-03-01T07:35:38;103261.63;;;16.49;48.32
69245;BME280;56357;52.304;4.870;2023-03-01T07:38:04;103263.69;;;16.27;47.57
69245;BME280;56357;52.304;4.870;2023-03-01T07:40:31;103268.41;;;16.20;47.88
69245;BME280;56357;52.304;4.870;2023-03-01T07:42:58;103263.94;;;16.32;47.76
69245;BME280;56357;52.304;4.870;2023-03-01T07:45:27;103266.28;;;16.22;47.81
69245;BME280;56357;52.304;4.870;2023-03-01T07:47:54;103267.94;;;16.10;48.67
69245;BME280;56357;52.304;4.870;2023-03-01T07:50:22;103265.41;;;16.15;48.19
69245;BME280;56357;52.304;4.870;2023-03-01T07:52:49;103259.38;;;16.18;47.53
69245;BME280;56357;52.304;4.870;2023-03-01T07:55:16;103266.06;;;16.17;48.01
69245;BME280;56357;52.304;4.870;2023-03-01T07:57:42;103259.19;;;16.33;48.85
69245;BME280;56357;52.304;4.870;2023-03-01T08:00:11;103257.84;;;16.16;49.20
69245;BME280;56357;52.304;4.870;2023-03-01T08:02:38;103254.59;;;16.06;50.04
69245;BME280;56357;52.304;4.870;2023-03-01T08:05:05;103259.94;;;16.01;50.63
69245;BME280;56357;52.304;4.870;2023-03-01T08:07:32;103268.38;;;16.07;50.26
69245;BME280;56357;52.304;4.870;2023-03-01T08:09:59;103267.09;;;16.16;50.14
69245;BME280;56357;52.304;4.870;2023-03-01T08:12:25;103269.31;;;16.34;49.97
69245;BME280;56357;52.304;4.870;2023-03-01T08:14:53;103275.13;;;16.39;49.62
69245;BME280;56357;52.304;4.870;2023-03-01T08:17:19;103266.88;;;16.18;50.12
69245;BME280;56357;52.304;4.870;2023-03-01T08:19:48;103263.75;;;16.40;49.79
69245;BME280;56357;52.304;4.870;2023-03-01T08:22:15;103263.16;;;16.52;49.46
69245;BME280;56357;52.304;4.870;2023-03-01T08:24:42;103256.63;;;16.44;49.87
69245;BME280;56357;52.304;4.870;2023-03-01T08:27:08;103253.63;;;16.39;50.09
69245;BME280;56357;52.304;4.870;2023-03-01T08:29:35;103251.69;;;16.46;49.26
69245;BME280;56357;52.304;4.870;2023-03-01T08:32:01;103253.84;;;16.38;49.43
69245;BME280;56357;52.304;4.870;2023-03-01T08:34:28;103249.38;;;16.57;49.18
69245;BME280;56357;52.304;4.870;2023-03-01T08:36:56;103250.91;;;16.66;48.90
69245;BME280;56357;52.304;4.870;2023-03-01T08:39:22;103247.19;;;16.45;49.15
69245;BME280;56357;52.304;4.870;2023-03-01T08:41:49;103253.03;;;16.51;48.60
69245;BME280;56357;52.304;4.870;2023-03-01T08:44:15;103249.97;;;16.45;47.86
69245;BME280;56357;52.304;4.870;2023-03-01T08:46:43;103245.03;;;16.47;47.48
69245;BME280;56357;52.304;4.870;2023-03-01T08:49:16;103245.44;;;16.38;47.30
69245;BME280;56357;52.304;4.870;2023-03-01T08:51:43;103242.66;;;16.38;47.25
69245;BME280;56357;52.304;4.870;2023-03-01T08:54:15;103241.38;;;16.47;46.89
69245;BME280;56357;52.304;4.870;2023-03-01T08:56:43;103247.44;;;16.51;46.91
69245;BME280;56357;52.304;4.870;2023-03-01T08:59:11;103238.44;;;16.62;47.20
69245;BME280;56357;52.304;4.870;2023-03-01T09:01:38;103239.28;;;16.69;47.00
69245;BME280;56357;52.304;4.870;2023-03-01T09:04:05;103239.28;;;16.82;46.82
69245;BME280;56357;52.304;4.870;2023-03-01T09:06:33;103241.47;;;16.86;46.60
69245;BME280;56357;52.304;4.870;2023-03-01T09:09:00;103235.00;;;16.99;46.10
69245;BME280;56357;52.304;4.870;2023-03-01T09:11:27;103232.84;;;17.07;45.61
69245;BME280;56357;52.304;4.870;2023-03-01T09:13:54;103230.25;;;16.99;45.37
69245;BME280;56357;52.304;4.870;2023-03-01T09:16:21;103223.81;;;16.86;45.90
69245;BME280;56357;52.304;4.870;2023-03-01T09:18:50;103226.16;;;17.15;45.47
69245;BME280;56357;52.304;4.870;2023-03-01T09:21:18;103221.22;;;17.04;46.40
69245;BME280;56357;52.304;4.870;2023-03-01T09:23:47;103225.94;;;17.03;47.10
69245;BME280;56357;52.304;4.870;2023-03-01T09:26:19;103214.53;;;17.11;46.63
69245;BME280;56357;52.304;4.870;2023-03-01T09:28:47;103225.72;;;17.18;46.54
69245;BME280;56357;52.304;4.870;2023-03-01T09:31:16;103222.25;;;17.29;46.05
69245;BME280;56357;52.304;4.870;2023-03-01T09:33:46;103217.97;;;17.20;46.17
69245;BME280;56357;52.304;4.870;2023-03-01T09:36:18;103212.16;;;17.15;46.45
69245;BME280;56357;52.304;4.870;2023-03-01T09:38:46;103213.66;;;17.30;46.31
69245;BME280;56357;52.304;4.870;2023-03-01T09:41:26;103208.25;;;17.29;46.10
69245;BME280;56357;52.304;4.870;2023-03-01T09:44:09;103210.19;;;17.48;45.63
69245;BME280;56357;52.304;4.870;2023-03-01T09:46:42;103215.78;;;17.35;45.47
69245;BME280;56357;52.304;4.870;2023-03-01T09:49:24;103206.00;;;17.70;45.40
69245;BME280;56357;52.304;4.870;2023-03-01T09:51:57;103209.91;;;17.69;45.26
69245;BME280;56357;52.304;4.870;2023-03-01T09:54:24;103195.44;;;18.16;44.50
69245;BME280;56357;52.304;4.870;2023-03-01T09:57:01;103206.13;;;18.33;44.24
69245;BME280;56357;52.304;4.870;2023-03-01T10:02:42;103204.59;;;18.68;43.53
69245;BME280;56357;52.304;4.870;2023-03-01T10:05:31;103208.19;;;18.50;44.03
69245;BME280;56357;52.304;4.870;2023-03-01T10:08:26;103202.88;;;18.67;43.86
69245;BME280;56357;52.304;4.870;2023-03-01T10:10:57;103201.97;;;18.97;42.73
69245;BME280;56357;52.304;4.870;2023-03-01T10:13:26;103203.44;;;18.51;43.88
69245;BME280;56357;52.304;4.870;2023-03-01T10:16:01;103202.38;;;18.52;44.05
69245;BME280;56357;52.304;4.870;2023-03-01T10:18:31;103208.78;;;18.59;43.97
69245;BME280;56357;52.304;4.870;2023-03-01T10:21:21;103211.72;;;18.70;43.81
69245;BME280;56357;52.304;4.870;2023-03-01T10:23:51;103207.94;;;19.32;42.81
69245;BME280;56357;52.304;4.870;2023-03-01T10:26:35;103195.75;;;19.13;42.61
69245;BME280;56357;52.304;4.870;2023-03-01T10:29:09;103200.53;;;18.64;43.36
69245;BME280;56357;52.304;4.870;2023-03-01T10:34:16;103183.38;;;18.96;42.67
69245;BME280;56357;52.304;4.870;2023-03-01T10:36:45;103190.44;;;19.48;41.58
69245;BME280;56357;52.304;4.870;2023-03-01T10:39:20;103172.44;;;19.31;41.78
69245;BME280;56357;52.304;4.870;2023-03-01T10:41:59;103165.81;;;19.26;38.06
69245;BME280;56357;52.304;4.870;2023-03-01T10:44:42;103166.50;;;18.78;40.34
69245;BME280;56357;52.304;4.870;2023-03-01T10:47:19;103159.41;;;18.51;41.30
69245;BME280;56357;52.304;4.870;2023-03-01T10:50:01;103149.28;;;18.12;40.79
69245;BME280;56357;52.304;4.870;2023-03-01T10:54:59;103156.41;;;18.46;40.38
69245;BME280;56357;52.304;4.870;2023-03-01T10:57:32;103161.41;;;18.38;41.30
69245;BME280;56357;52.304;4.870;2023-03-01T11:03:03;103156.41;;;18.15;41.50
69245;BME280;56357;52.304;4.870;2023-03-01T11:05:35;103160.09;;;18.09;41.82
69245;BME280;56357;52.304;4.870;2023-03-01T11:08:02;103145.94;;;17.97;42.39
69245;BME280;56357;52.304;4.870;2023-03-01T11:10:32;103150.19;;;18.06;42.04
69245;BME280;56357;52.304;4.870;2023-03-01T11:13:08;103144.78;;;18.11;42.53
69245;BME280;56357;52.304;4.870;2023-03-01T11:15:39;103131.59;;;18.12;42.36
69245;BME280;56357;52.304;4.870;2023-03-01T11:18:19;103129.31;;;18.27;41.92
69245;BME280;56357;52.304;4.870;2023-03-01T11:20:48;103134.53;;;18.23;41.48
69245;BME280;56357;52.304;4.870;2023-03-01T11:23:16;103129.81;;;18.17;41.04
69245;BME280;56357;52.304;4.870;2023-03-01T11:25:47;103122.16;;;18.06;40.42
69245;BME280;56357;52.304;4.870;2023-03-01T11:28:17;103130.56;;;18.06;38.96
69245;BME280;56357;52.304;4.870;2023-03-01T11:36:08;103113.94;;;18.11;35.98
69245;BME280;56357;52.304;4.870;2023-03-01T11:38:39;103119.91;;;17.84;36.30
69245;BME280;56357;52.304;4.870;2023-03-01T11:41:10;103110.13;;;17.99;35.51
69245;BME280;56357;52.304;4.870;2023-03-01T11:44:00;103119.47;;;17.87;34.61
69245;BME280;56357;52.304;4.870;2023-03-01T11:49:52;103096.84;;;17.82;33.56
69245;BME280;56357;52.304;4.870;2023-03-01T11:52:52;103098.88;;;17.68;33.95
69245;BME280;56357;52.304;4.870;2023-03-01T11:55:58;103099.66;;;17.82;33.19
69245;BME280;56357;52.304;4.870;2023-03-01T12:07:12;103083.16;;;17.67;35.35
69245;BME280;56357;52.304;4.870;2023-03-01T12:12:33;103073.91;;;17.60;36.42
69245;BME280;56357;52.304;4.870;2023-03-01T12:18:34;103076.53;;;17.55;37.87
69245;BME280;56357;52.304;4.870;2023-03-01T12:21:18;103075.84;;;17.60;37.50
69245;BME280;56357;52.304;4.870;2023-03-01T12:24:17;103073.72;;;17.55;38.15
69245;BME280;56357;52.304;4.870;2023-03-01T12:35:01;103060.59;;;17.56;39.02
69245;BME280;56357;52.304;4.870;2023-03-01T12:37:56;103058.81;;;18.23;38.33
69245;BME280;56357;52.304;4.870;2023-03-01T12:43:27;103045.09;;;19.01;37.37
69245;BME280;56357;52.304;4.870;2023-03-01T12:49:16;103043.66;;;19.46;37.02
69245;BME280;56357;52.304;4.870;2023-03-01T12:51:59;103036.28;;;19.52;37.16
69245;BME280;56357;52.304;4.870;2023-03-01T12:54:33;103044.28;;;19.48;37.08
69245;BME280;56357;52.304;4.870;2023-03-01T12:57:24;103042.03;;;19.57;37.16
69245;BME280;56357;52.304;4.870;2023-03-01T13:00:31;103044.63;;;19.70;36.99
69245;BME280;56357;52.304;4.870;2023-03-01T13:05:45;103028.88;;;19.69;37.30
69245;BME280;56357;52.304;4.870;2023-03-01T13:08:22;103032.19;;;19.77;37.16
69245;BME280;56357;52.304;4.870;2023-03-01T13:10:58;103022.53;;;19.73;36.98
69245;BME280;56357;52.304;4.870;2023-03-01T13:13:28;103015.19;;;19.72;37.33
69245;BME280;56357;52.304;4.870;2023-03-01T13:15:55;103010.94;;;19.81;37.21
69245;BME280;56357;52.304;4.870;2023-03-01T13:20:52;103016.44;;;19.76;37.33
69245;BME280;56357;52.304;4.870;2023-03-01T13:26:15;103009.81;;;19.71;37.64
69245;BME280;56357;52.304;4.870;2023-03-01T13:33:50;102991.22;;;18.74;40.02
69245;BME280;56357;52.304;4.870;2023-03-01T13:38:59;102984.56;;;18.26;40.83
69245;BME280;56357;52.304;4.870;2023-03-01T13:46:47;102979.72;;;18.15;41.33
69245;BME280;56357;52.304;4.870;2023-03-01T13:49:20;102972.47;;;18.07;41.22
69245;BME280;56357;52.304;4.870;2023-03-01T13:51:48;102974.44;;;18.00;41.51
69245;BME280;56357;52.304;4.870;2023-03-01T13:54:16;102970.63;;;17.95;41.46
69245;BME280;56357;52.304;4.870;2023-03-01T13:56:46;102964.22;;;17.88;42.02
69245;BME280;56357;52.304;4.870;2023-03-01T13:59:19;102969.63;;;17.83;42.34
69245;BME280;56357;52.304;4.870;2023-03-01T14:01:55;102965.13;;;17.82;42.08
69245;BME280;56357;52.304;4.870;2023-03-01T14:04:24;102965.41;;;17.74;42.50
69245;BME280;56357;52.304;4.870;2023-03-01T14:06:51;102952.47;;;17.73;42.38
69245;BME280;56357;52.304;4.870;2023-03-01T14:09:21;102949.44;;;17.74;42.39
69245;BME280;56357;52.304;4.870;2023-03-01T14:17:16;102937.22;;;17.69;42.81
69245;BME280;56357;52.304;4.870;2023-03-01T14:19:55;102928.84;;;17.62;42.77
69245;BME280;56357;52.304;4.870;2023-03-01T14:22:30;102924.50;;;17.66;42.96
69245;BME280;56357;52.304;4.870;2023-03-01T14:25:00;102927.78;;;17.63;42.92
69245;BME280;56357;52.304;4.870;2023-03-01T14:27:37;102920.50;;;17.56;43.41
69245;BME280;56357;52.304;4.870;2023-03-01T14:30:15;102921.34;;;17.56;43.30